sensor_id;sensor_type;location;lat;lon;timestamp;temperature;humidity
4637;DHT22;2331;48.806;9.140;2024-02-23T00:01:50;9.00;1.00
4637;DHT22;2331;48.806;9.140;2024-02-23T00:04:16;9.10;1.00
4637;DHT22;2331;48.806;9.140;2024-02-23T00:06:45;9.10;1.00
4637;DHT22;2331;48.806;9.140;2024-02-23T00:09:12;9.00;1.00
4637;DHT22;2331;48.806;9.140;2024-02-23T00:11:39;9.00;1.00
4637;DHT22;2331;48.806;9.140;2024-02-23T00:14:09;9.10;1.00
4637;DHT22;2331;48.806;9.140;2024-02-23T00:16:38;9.10;1.00
4637;DHT22;2331;48.806;9.140;2024-02-23T00:19:05;9.20;1.00
4637;DHT22;2331;48.806;9.140;2024-02-23T00:21:32;8.90;1.00
4637;DHT22;2331;48.806;9.140;2024-02-23T00:24:00;9.00;1.00
4637;DHT22;2331;48.806;9.140;2024-02-23T00:26:27;9.00;1.00
4637;DHT22;2331;48.806;9.140;2024-02-23T00:28:54;8.80;1.00
4637;DHT22;2331;48.806;9.140;2024-02-23T00:31:21;8.90;1.00
4637;DHT22;2331;48.806;9.140;2024-02-23T00:33:47;8.80;1.00
4637;DHT22;2331;48.806;9.140;2024-02-23T00:36:14;8.70;1.00
4637;DHT22;2331;48.806;9.140;2024-02-23T00:38:41;8.80;1.00
4637;DHT22;2331;48.806;9.140;2024-02-23T00:41:10;8.80;1.00
4637;DHT22;2331;48.806;9.140;2024-02-23T00:43:40;9.00;1.00
4637;DHT22;2331;48.806;9.140;2024-02-23T00:46:07;9.00;1.00
4637;DHT22;2331;48.806;9.140;2024-02-23T00:48:34;9.00;1.00
4637;DHT22;2331;48.806;9.140;2024-02-23T00:51:01;9.00;1.00
4637;DHT22;2331;48.806;9.140;2024-02-23T00:53:30;9.00;1.00
4637;DHT22;2331;48.806;9.140;2024-02-23T00:55:57;9.00;1.00
4637;DHT22;2331;48.806;9.140;2024-02-23T00:58:25;9.00;1.00
4637;DHT22;2331;48.806;9.140;2024-02-23T01:00:51;9.10;1.00
4637;DHT22;2331;48.806;9.140;2024-02-23T01:03:18;9.10;1.00
4637;DHT22;2331;48.806;9.140;2024-02-23T01:05:45;9.10;1.00
4637;DHT22;2331;48.806;9.140;2024-02-23T01:08:12;8.90;1.00
4637;DHT22;2331;48.806;9.140;2024-02-23T01:10:38;9.00;1.00
4637;DHT22;2331;48.806;9.140;2024-02-23T01:13:05;9.10;1.00
4637;DHT22;2331;48.806;9.140;2024-02-23T01:15:33;9.10;1.00
4637;DHT22;2331;48.806;9.140;2024-02-23T01:18:00;9.00;1.00
4637;DHT22;2331;48.806;9.140;2024-02-23T01:20:26;9.10;1.00
4637;DHT22;2331;48.806;9.140;2024-02-23T01:22:53;9.10;1.00
4637;DHT22;2331;48.806;9.140;2024-02-23T01:25:20;9.10;1.00
4637;DHT22;2331;48.806;9.140;2024-02-23T01:27:46;9.20;1.00
4637;DHT22;2331;48.806;9.140;2024-02-23T01:30:13;9.30;1.00
4637;DHT22;2331;48.806;9.140;2024-02-23T01:32:41;9.30;1.00
4637;DHT22;2331;48.806;9.140;2024-02-23T01:35:08;9.40;1.00
4637;DHT22;2331;48.806;9.140;2024-02-23T01:37:35;9.40;1.00
4637;DHT22;2331;48.806;9.140;2024-02-23T01:40:02;9.40;1.00
4637;DHT22;2331;48.806;9.140;2024-02-23T01:42:29;9.40;1.00
4637;DHT22;2331;48.806;9.140;2024-02-23T01:44:56;9.40;1.00
4637;DHT22;2331;48.806;9.140;2024-02-23T01:47:23;9.40;1.00
4637;DHT22;2331;48.806;9.140;2024-02-23T01:49:51;9.40;1.00
4637;DHT22;2331;48.806;9.140;2024-02-23T01:52:18;9.40;1.00
4637;DHT22;2331;48.806;9.140;2024-02-23T01:54:46;9.50;1.00
4637;DHT22;2331;48.806;9.140;2024-02-23T01:57:14;9.50;1.00
4637;DHT22;2331;48.806;9.140;2024-02-23T01:59:41;9.40;1.00
4637;DHT22;2331;48.806;9.140;2024-02-23T02:02:08;9.30;1.00
4637;DHT22;2331;48.806;9.140;2024-02-23T02:04:35;9.40;1.00
4637;DHT22;2331;48.806;9.140;2024-02-23T02:07:04;9.30;1.00
4637;DHT22;2331;48.806;9.140;2024-02-23T02:09:31;9.40;1.00
4637;DHT22;2331;48.806;9.140;2024-02-23T02:11:58;9.50;1.00
4637;DHT22;2331;48.806;9.140;2024-02-23T02:14:25;9.50;1.00
4637;DHT22;2331;48.806;9.140;2024-02-23T02:16:53;9.50;1.00
4637;DHT22;2331;48.806;9.140;2024-02-23T02:19:20;9.50;1.00
4637;DHT22;2331;48.806;9.140;2024-02-23T02:21:47;9.40;1.00
4637;DHT22;2331;48.806;9.140;2024-02-23T02:24:15;9.40;1.00
4637;DHT22;2331;48.806;9.140;2024-02-23T02:26:41;9.40;1.00
4637;DHT22;2331;48.806;9.140;2024-02-23T02:29:10;9.40;1.00
4637;DHT22;2331;48.806;9.140;2024-02-23T02:31:37;9.40;1.00
4637;DHT22;2331;48.806;9.140;2024-02-23T02:34:04;9.40;1.00
4637;DHT22;2331;48.806;9.140;2024-02-23T02:36:30;9.40;1.00
4637;DHT22;2331;48.806;9.140;2024-02-23T02:38:57;9.40;1.00
4637;DHT22;2331;48.806;9.140;2024-02-23T02:41:28;9.40;1.00
4637;DHT22;2331;48.806;9.140;2024-02-23T02:43:55;9.30;1.00
4637;DHT22;2331;48.806;9.140;2024-02-23T02:46:22;9.40;1.00
4637;DHT22;2331;48.806;9.140;2024-02-23T02:48:49;9.50;1.00
4637;DHT22;2331;48.806;9.140;2024-02-23T02:51:16;9.30;1.00
4637;DHT22;2331;48.806;9.140;2024-02-23T02:53:42;9.40;1.00
4637;DHT22;2331;48.806;9.140;2024-02-23T02:56:09;9.40;1.00
4637;DHT22;2331;48.806;9.140;2024-02-23T02:58:37;9.50;1.00
4637;DHT22;2331;48.806;9.140;2024-02-23T03:01:03;9.30;1.00
4637;DHT22;2331;48.806;9.140;2024-02-23T03:03:30;9.20;1.00
4637;DHT22;2331;48.806;9.140;2024-02-23T03:05:57;9.30;1.00
4637;DHT22;2331;48.806;9.140;2024-02-23T03:08:23;9.30;1.00
4637;DHT22;2331;48.806;9.140;2024-02-23T03:10:50;9.40;1.00
4637;DHT22;2331;48.806;9.140;2024-02-23T03:13:17;9.50;1.00
4637;DHT22;2331;48.806;9.140;2024-02-23T03:15:45;9.50;1.00
4637;DHT22;2331;48.806;9.140;2024-02-23T03:18:12;9.50;1.00
4637;DHT22;2331;48.806;9.140;2024-02-23T03:20:40;9.60;1.00
4637;DHT22;2331;48.806;9.140;2024-02-23T03:23:07;9.50;1.00
4637;DHT22;2331;48.806;9.140;2024-02-23T03:25:33;9.60;1.00
4637;DHT22;2331;48.806;9.140;2024-02-23T03:28:00;9.60;1.00
4637;DHT22;2331;48.806;9.140;2024-02-23T03:30:27;9.60;1.00
4637;DHT22;2331;48.806;9.140;2024-02-23T03:32:55;9.60;1.00
4637;DHT22;2331;48.806;9.140;2024-02-23T03:35:21;9.40;1.00
4637;DHT22;2331;48.806;9.140;2024-02-23T03:37:48;9.40;1.00
4637;DHT22;2331;48.806;9.140;2024-02-23T03:40:15;9.50;1.00
4637;DHT22;2331;48.806;9.140;2024-02-23T03:42:43;9.50;1.00
4637;DHT22;2331;48.806;9.140;2024-02-23T03:45:10;9.50;1.00
4637;DHT22;2331;48.806;9.140;2024-02-23T03:47:38;9.50;1.00
4637;DHT22;2331;48.806;9.140;2024-02-23T03:50:06;9.40;1.00
4637;DHT22;2331;48.806;9.140;2024-02-23T03:52:34;9.00;1.00
4637;DHT22;2331;48.806;9.140;2024-02-23T03:55:01;9.00;1.00
4637;DHT22;2331;48.806;9.140;2024-02-23T03:57:29;9.00;1.00
4637;DHT22;2331;48.806;9.140;2024-02-23T03:59:56;9.10;1.00
4637;DHT22;2331;48.806;9.140;2024-02-23T04:02:23;9.10;1.00
4637;DHT22;2331;48.806;9.140;2024-02-23T04:04:50;9.10;1.00
4637;DHT22;2331;48.806;9.140;2024-02-23T04:07:18;8.90;1.00
4637;DHT22;2331;48.806;9.140;2024-02-23T04:09:44;9.00;1.00
4637;DHT22;2331;48.806;9.140;2024-02-23T04:12:11;9.00;1.00
4637;DHT22;2331;48.806;9.140;2024-02-23T04:14:37;9.20;1.00
4637;DHT22;2331;48.806;9.140;2024-02-23T04:17:06;9.20;1.00
4637;DHT22;2331;48.806;9.140;2024-02-23T04:19:32;9.20;1.00
4637;DHT22;2331;48.806;9.140;2024-02-23T04:21:59;9.20;1.00
4637;DHT22;2331;48.806;9.140;2024-02-23T04:24:27;9.20;1.00
4637;DHT22;2331;48.806;9.140;2024-02-23T04:26:53;9.30;1.00
4637;DHT22;2331;48.806;9.140;2024-02-23T04:29:20;9.30;1.00
4637;DHT22;2331;48.806;9.140;2024-02-23T04:31:47;9.30;1.00
4637;DHT22;2331;48.806;9.140;2024-02-23T04:34:15;9.30;1.00
4637;DHT22;2331;48.806;9.140;2024-02-23T04:36:41;9.30;1.00
4637;DHT22;2331;48.806;9.140;2024-02-23T04:39:08;9.20;1.00
4637;DHT22;2331;48.806;9.140;2024-02-23T04:41:36;9.20;1.00
4637;DHT22;2331;48.806;9.140;2024-02-23T04:44:03;9.20;1.00
4637;DHT22;2331;48.806;9.140;2024-02-23T04:46:31;9.20;1.00
4637;DHT22;2331;48.806;9.140;2024-02-23T04:48:59;9.20;1.00
4637;DHT22;2331;48.806;9.140;2024-02-23T04:51:26;9.20;1.00
4637;DHT22;2331;48.806;9.140;2024-02-23T04:53:53;9.10;1.00
4637;DHT22;2331;48.806;9.140;2024-02-23T04:56:19;9.20;1.00
4637;DHT22;2331;48.806;9.140;2024-02-23T04:58:48;9.20;1.00
4637;DHT22;2331;48.806;9.140;2024-02-23T05:01:15;9.20;1.00
4637;DHT22;2331;48.806;9.140;2024-02-23T05:03:41;9.20;1.00
4637;DHT22;2331;48.806;9.140;2024-02-23T05:06:08;9.30;1.00
4637;DHT22;2331;48.806;9.140;2024-02-23T05:08:35;9.30;1.00
4637;DHT22;2331;48.806;9.140;2024-02-23T05:11:01;9.30;1.00
4637;DHT22;2331;48.806;9.140;2024-02-23T05:13:28;9.30;1.00
4637;DHT22;2331;48.806;9.140;2024-02-23T05:15:56;9.30;1.00
4637;DHT22;2331;48.806;9.140;2024-02-23T05:18:23;9.30;1.00
4637;DHT22;2331;48.806;9.140;2024-02-23T05:20:50;9.20;1.00
4637;DHT22;2331;48.806;9.140;2024-02-23T05:23:16;9.20;1.00
4637;DHT22;2331;48.806;9.140;2024-02-23T05:25:43;9.10;1.00
4637;DHT22;2331;48.806;9.140;2024-02-23T05:28:10;9.10;1.00
4637;DHT22;2331;48.806;9.140;2024-02-23T05:30:36;9.10;1.00
4637;DHT22;2331;48.806;9.140;2024-02-23T05:33:05;9.10;1.00
4637;DHT22;2331;48.806;9.140;2024-02-23T05:35:31;9.10;1.00
4637;DHT22;2331;48.806;9.140;2024-02-23T05:37:58;9.00;1.00
4637;DHT22;2331;48.806;9.140;2024-02-23T05:40:25;8.90;1.00
4637;DHT22;2331;48.806;9.140;2024-02-23T05:42:51;8.80;1.00
4637;DHT22;2331;48.806;9.140;2024-02-23T05:45:18;8.80;1.00
4637;DHT22;2331;48.806;9.140;2024-02-23T05:47:45;8.80;1.00
4637;DHT22;2331;48.806;9.140;2024-02-23T05:50:13;8.70;1.00
4637;DHT22;2331;48.806;9.140;2024-02-23T05:52:40;8.70;1.00
4637;DHT22;2331;48.806;9.140;2024-02-23T05:55:07;8.70;1.00
4637;DHT22;2331;48.806;9.140;2024-02-23T05:57:34;8.70;1.00
4637;DHT22;2331;48.806;9.140;2024-02-23T06:00:01;8.70;1.00
4637;DHT22;2331;48.806;9.140;2024-02-23T06:02:27;8.70;1.00
4637;DHT22;2331;48.806;9.140;2024-02-23T06:04:54;8.80;1.00
4637;DHT22;2331;48.806;9.140;2024-02-23T06:07:22;8.70;1.00
4637;DHT22;2331;48.806;9.140;2024-02-23T06:09:54;8.80;1.00
4637;DHT22;2331;48.806;9.140;2024-02-23T06:12:21;8.80;1.00
4637;DHT22;2331;48.806;9.140;2024-02-23T06:14:48;8.80;1.00
4637;DHT22;2331;48.806;9.140;2024-02-23T06:17:14;8.80;1.00
4637;DHT22;2331;48.806;9.140;2024-02-23T06:19:41;8.80;1.00
4637;DHT22;2331;48.806;9.140;2024-02-23T06:22:08;8.80;1.00
4637;DHT22;2331;48.806;9.140;2024-02-23T06:24:36;8.80;1.00
4637;DHT22;2331;48.806;9.140;2024-02-23T06:27:03;8.80;1.00
4637;DHT22;2331;48.806;9.140;2024-02-23T06:29:30;8.80;1.00
4637;DHT22;2331;48.806;9.140;2024-02-23T06:31:57;8.80;1.00
4637;DHT22;2331;48.806;9.140;2024-02-23T06:34:23;8.80;1.00
4637;DHT22;2331;48.806;9.140;2024-02-23T06:36:50;8.80;1.00
4637;DHT22;2331;48.806;9.140;2024-02-23T06:39:17;8.80;1.00
4637;DHT22;2331;48.806;9.140;2024-02-23T06:41:46;8.70;1.00
4637;DHT22;2331;48.806;9.140;2024-02-23T06:44:13;8.70;1.00
4637;DHT22;2331;48.806;9.140;2024-02-23T06:46:39;8.70;1.00
4637;DHT22;2331;48.806;9.140;2024-02-23T06:49:07;8.70;1.00
4637;DHT22;2331;48.806;9.140;2024-02-23T06:51:34;8.80;1.00
4637;DHT22;2331;48.806;9.140;2024-02-23T06:54:00;8.70;1.00
4637;DHT22;2331;48.806;9.140;2024-02-23T06:56:29;8.70;1.00
4637;DHT22;2331;48.806;9.140;2024-02-23T06:58:57;8.70;1.00
4637;DHT22;2331;48.806;9.140;2024-02-23T07:01:23;8.70;1.00
4637;DHT22;2331;48.806;9.140;2024-02-23T07:03:51;8.70;1.00
4637;DHT22;2331;48.806;9.140;2024-02-23T07:06:17;8.70;1.00
4637;DHT22;2331;48.806;9.140;2024-02-23T07:08:44;8.80;1.00
4637;DHT22;2331;48.806;9.140;2024-02-23T07:11:11;8.70;1.00
4637;DHT22;2331;48.806;9.140;2024-02-23T07:13:38;8.80;1.00
4637;DHT22;2331;48.806;9.140;2024-02-23T07:16:07;8.80;1.00
4637;DHT22;2331;48.806;9.140;2024-02-23T07:18:34;8.80;1.00
4637;DHT22;2331;48.806;9.140;2024-02-23T07:21:00;8.80;1.00
4637;DHT22;2331;48.806;9.140;2024-02-23T07:23:27;8.80;1.00
4637;DHT22;2331;48.806;9.140;2024-02-23T07:25:54;8.80;1.00
4637;DHT22;2331;48.806;9.140;2024-02-23T07:28:20;8.80;1.00
4637;DHT22;2331;48.806;9.140;2024-02-23T07:30:48;8.80;1.00
4637;DHT22;2331;48.806;9.140;2024-02-23T07:33:16;8.80;1.00
4637;DHT22;2331;48.806;9.140;2024-02-23T07:35:43;8.70;1.00
4637;DHT22;2331;48.806;9.140;2024-02-23T07:38:09;8.80;1.00
4637;DHT22;2331;48.806;9.140;2024-02-23T07:40:36;8.70;1.00
4637;DHT22;2331;48.806;9.140;2024-02-23T07:43:03;8.80;1.00
4637;DHT22;2331;48.806;9.140;2024-02-23T07:45:30;8.80;1.00
4637;DHT22;2331;48.806;9.140;2024-02-23T07:47:58;8.80;1.00
4637;DHT22;2331;48.806;9.140;2024-02-23T07:50:26;8.90;1.00
4637;DHT22;2331;48.806;9.140;2024-02-23T07:52:53;8.80;1.00
4637;DHT22;2331;48.806;9.140;2024-02-23T07:55:20;8.90;1.00
4637;DHT22;2331;48.806;9.140;2024-02-23T07:57:47;8.90;1.00
4637;DHT22;2331;48.806;9.140;2024-02-23T08:00:14;8.90;1.00
4637;DHT22;2331;48.806;9.140;2024-02-23T08:02:41;8.90;1.00
4637;DHT22;2331;48.806;9.140;2024-02-23T08:05:08;8.90;1.00
4637;DHT22;2331;48.806;9.140;2024-02-23T08:07:36;8.90;1.00
4637;DHT22;2331;48.806;9.140;2024-02-23T08:10:03;8.90;1.00
4637;DHT22;2331;48.806;9.140;2024-02-23T08:12:30;8.90;1.00
4637;DHT22;2331;48.806;9.140;2024-02-23T08:14:57;8.90;1.00
4637;DHT22;2331;48.806;9.140;2024-02-23T08:17:23;8.90;1.00
4637;DHT22;2331;48.806;9.140;2024-02-23T08:19:51;8.90;1.00
4637;DHT22;2331;48.806;9.140;2024-02-23T08:22:18;8.90;1.00
4637;DHT22;2331;48.806;9.140;2024-02-23T08:24:46;8.90;1.00
4637;DHT22;2331;48.806;9.140;2024-02-23T08:27:12;8.90;1.00
4637;DHT22;2331;48.806;9.140;2024-02-23T08:29:39;8.90;1.00
4637;DHT22;2331;48.806;9.140;2024-02-23T08:32:07;8.90;1.00
4637;DHT22;2331;48.806;9.140;2024-02-23T08:34:33;8.90;1.00
4637;DHT22;2331;48.806;9.140;2024-02-23T08:37:00;8.90;1.00
4637;DHT22;2331;48.806;9.140;2024-02-23T08:39:28;8.90;1.00
4637;DHT22;2331;48.806;9.140;2024-02-23T08:41:56;8.90;1.00
4637;DHT22;2331;48.806;9.140;2024-02-23T08:44:22;8.90;1.00
4637;DHT22;2331;48.806;9.140;2024-02-23T08:46:49;8.80;1.00
4637;DHT22;2331;48.806;9.140;2024-02-23T08:49:16;8.90;1.00
4637;DHT22;2331;48.806;9.140;2024-02-23T08:51:42;8.90;1.00
4637;DHT22;2331;48.806;9.140;2024-02-23T08:54:09;8.90;1.00
4637;DHT22;2331;48.806;9.140;2024-02-23T08:56:37;8.90;1.00
4637;DHT22;2331;48.806;9.140;2024-02-23T08:59:06;8.90;1.00
4637;DHT22;2331;48.806;9.140;2024-02-23T09:01:33;8.90;1.00
4637;DHT22;2331;48.806;9.140;2024-02-23T09:03:59;9.00;1.00
4637;DHT22;2331;48.806;9.140;2024-02-23T09:06:26;8.90;1.00
4637;DHT22;2331;48.806;9.140;2024-02-23T09:08:53;8.80;1.00
4637;DHT22;2331;48.806;9.140;2024-02-23T09:11:19;8.80;1.00
4637;DHT22;2331;48.806;9.140;2024-02-23T09:13:46;8.80;1.00
4637;DHT22;2331;48.806;9.140;2024-02-23T09:16:14;8.80;1.00
4637;DHT22;2331;48.806;9.140;2024-02-23T09:18:41;8.80;1.00
4637;DHT22;2331;48.806;9.140;2024-02-23T09:21:08;8.80;1.00
4637;DHT22;2331;48.806;9.140;2024-02-23T09:23:34;8.70;1.00
4637;DHT22;2331;48.806;9.140;2024-02-23T09:26:01;8.60;1.00
4637;DHT22;2331;48.806;9.140;2024-02-23T09:28:30;8.70;1.00
4637;DHT22;2331;48.806;9.140;2024-02-23T09:30:56;8.80;1.00
4637;DHT22;2331;48.806;9.140;2024-02-23T09:33:25;8.90;1.00
4637;DHT22;2331;48.806;9.140;2024-02-23T09:35:51;8.90;1.00
4637;DHT22;2331;48.806;9.140;2024-02-23T09:38:18;8.80;1.00
4637;DHT22;2331;48.806;9.140;2024-02-23T09:40:45;8.70;1.00
4637;DHT22;2331;48.806;9.140;2024-02-23T09:43:14;8.70;1.00
4637;DHT22;2331;48.806;9.140;2024-02-23T09:45:42;8.60;1.00
4637;DHT22;2331;48.806;9.140;2024-02-23T09:48:10;8.70;1.00
4637;DHT22;2331;48.806;9.140;2024-02-23T09:50:40;8.70;1.00
4637;DHT22;2331;48.806;9.140;2024-02-23T09:53:11;8.80;1.00
4637;DHT22;2331;48.806;9.140;2024-02-23T09:55:37;8.90;1.00
4637;DHT22;2331;48.806;9.140;2024-02-23T09:58:04;8.90;1.00
4637;DHT22;2331;48.806;9.140;2024-02-23T10:00:34;9.00;1.00
4637;DHT22;2331;48.806;9.140;2024-02-23T10:03:04;9.00;1.00
4637;DHT22;2331;48.806;9.140;2024-02-23T10:05:32;9.00;1.00
4637;DHT22;2331;48.806;9.140;2024-02-23T10:08:00;9.10;1.00
4637;DHT22;2331;48.806;9.140;2024-02-23T10:10:29;9.20;1.00
4637;DHT22;2331;48.806;9.140;2024-02-23T10:12:57;9.30;1.00
4637;DHT22;2331;48.806;9.140;2024-02-23T10:15:24;9.40;1.00
4637;DHT22;2331;48.806;9.140;2024-02-23T10:17:50;9.50;1.00
4637;DHT22;2331;48.806;9.140;2024-02-23T10:20:19;9.50;1.00
4637;DHT22;2331;48.806;9.140;2024-02-23T10:22:46;9.50;1.00
4637;DHT22;2331;48.806;9.140;2024-02-23T10:25:14;9.60;1.00
4637;DHT22;2331;48.806;9.140;2024-02-23T10:27:41;9.60;1.00
4637;DHT22;2331;48.806;9.140;2024-02-23T10:30:09;9.60;1.00
4637;DHT22;2331;48.806;9.140;2024-02-23T10:32:38;9.60;1.00
4637;DHT22;2331;48.806;9.140;2024-02-23T10:35:10;9.60;1.00
4637;DHT22;2331;48.806;9.140;2024-02-23T10:37:37;9.60;1.00
4637;DHT22;2331;48.806;9.140;2024-02-23T10:40:06;9.60;1.00
4637;DHT22;2331;48.806;9.140;2024-02-23T10:42:38;9.60;1.00
4637;DHT22;2331;48.806;9.140;2024-02-23T10:45:06;9.70;1.00
4637;DHT22;2331;48.806;9.140;2024-02-23T10:47:34;9.80;1.00
4637;DHT22;2331;48.806;9.140;2024-02-23T10:50:02;9.80;1.00
4637;DHT22;2331;48.806;9.140;2024-02-23T10:52:31;9.80;1.00
4637;DHT22;2331;48.806;9.140;2024-02-23T10:55:00;9.90;1.00
4637;DHT22;2331;48.806;9.140;2024-02-23T10:57:30;9.90;1.00
4637;DHT22;2331;48.806;9.140;2024-02-23T10:59:58;9.90;1.00
4637;DHT22;2331;48.806;9.140;2024-02-23T11:02:27;10.00;1.00
4637;DHT22;2331;48.806;9.140;2024-02-23T11:04:56;10.00;1.00
4637;DHT22;2331;48.806;9.140;2024-02-23T11:07:24;10.10;1.00
4637;DHT22;2331;48.806;9.140;2024-02-23T11:09:53;10.00;1.00
4637;DHT22;2331;48.806;9.140;2024-02-23T11:12:24;10.00;1.00
4637;DHT22;2331;48.806;9.140;2024-02-23T11:14:51;10.20;1.00
4637;DHT22;2331;48.806;9.140;2024-02-23T11:17:26;10.20;1.00
4637;DHT22;2331;48.806;9.140;2024-02-23T11:19:54;10.20;1.00
4637;DHT22;2331;48.806;9.140;2024-02-23T11:22:25;10.20;1.00
4637;DHT22;2331;48.806;9.140;2024-02-23T11:24:53;10.30;1.00
4637;DHT22;2331;48.806;9.140;2024-02-23T11:27:19;10.30;1.00
4637;DHT22;2331;48.806;9.140;2024-02-23T11:29:46;10.30;1.00
4637;DHT22;2331;48.806;9.140;2024-02-23T11:32:15;10.40;1.00
4637;DHT22;2331;48.806;9.140;2024-02-23T11:34:54;10.30;1.00
4637;DHT22;2331;48.806;9.140;2024-02-23T11:37:21;10.30;1.00
4637;DHT22;2331;48.806;9.140;2024-02-23T11:39:48;10.30;1.00
4637;DHT22;2331;48.806;9.140;2024-02-23T11:42:15;10.40;1.00
4637;DHT22;2331;48.806;9.140;2024-02-23T11:44:43;10.30;1.00
4637;DHT22;2331;48.806;9.140;2024-02-23T11:47:09;10.40;1.00
4637;DHT22;2331;48.806;9.140;2024-02-23T11:49:36;10.40;1.00
4637;DHT22;2331;48.806;9.140;2024-02-23T11:52:04;10.50;1.00
4637;DHT22;2331;48.806;9.140;2024-02-23T11:54:31;10.50;1.00
4637;DHT22;2331;48.806;9.140;2024-02-23T11:56:58;10.60;1.00
4637;DHT22;2331;48.806;9.140;2024-02-23T11:59:25;10.50;1.00
4637;DHT22;2331;48.806;9.140;2024-02-23T12:01:52;10.40;1.00
4637;DHT22;2331;48.806;9.140;2024-02-23T12:04:19;10.50;1.00
4637;DHT22;2331;48.806;9.140;2024-02-23T12:06:46;10.50;1.00
4637;DHT22;2331;48.806;9.140;2024-02-23T12:09:15;10.60;1.00
4637;DHT22;2331;48.806;9.140;2024-02-23T12:11:42;10.60;1.00
4637;DHT22;2331;48.806;9.140;2024-02-23T12:14:12;10.70;1.00
4637;DHT22;2331;48.806;9.140;2024-02-23T12:16:52;10.70;1.00
4637;DHT22;2331;48.806;9.140;2024-02-23T12:19:29;10.60;1.00
4637;DHT22;2331;48.806;9.140;2024-02-23T12:22:00;10.70;1.00
4637;DHT22;2331;48.806;9.140;2024-02-23T12:24:29;10.60;1.00
4637;DHT22;2331;48.806;9.140;2024-02-23T12:26:56;10.60;1.00
4637;DHT22;2331;48.806;9.140;2024-02-23T12:29:23;10.70;1.00
4637;DHT22;2331;48.806;9.140;2024-02-23T12:31:50;10.60;1.00
4637;DHT22;2331;48.806;9.140;2024-02-23T12:34:18;10.70;1.00
4637;DHT22;2331;48.806;9.140;2024-02-23T12:36:46;10.70;1.00
4637;DHT22;2331;48.806;9.140;2024-02-23T12:39:13;10.60;1.00
4637;DHT22;2331;48.806;9.140;2024-02-23T12:41:41;10.80;1.00
4637;DHT22;2331;48.806;9.140;2024-02-23T12:44:08;10.80;1.00
4637;DHT22;2331;48.806;9.140;2024-02-23T12:46:35;10.60;1.00
4637;DHT22;2331;48.806;9.140;2024-02-23T12:49:01;10.60;1.00
4637;DHT22;2331;48.806;9.140;2024-02-23T12:51:28;10.70;1.00
4637;DHT22;2331;48.806;9.140;2024-02-23T12:53:55;10.80;1.00
4637;DHT22;2331;48.806;9.140;2024-02-23T12:56:22;10.70;1.00
4637;DHT22;2331;48.806;9.140;2024-02-23T12:58:52;10.70;1.00
4637;DHT22;2331;48.806;9.140;2024-02-23T13:01:19;10.70;1.00
4637;DHT22;2331;48.806;9.140;2024-02-23T13:03:46;10.80;1.00
4637;DHT22;2331;48.806;9.140;2024-02-23T13:06:13;10.90;1.00
4637;DHT22;2331;48.806;9.140;2024-02-23T13:08:40;10.90;1.00
4637;DHT22;2331;48.806;9.140;2024-02-23T13:11:08;10.90;1.00
4637;DHT22;2331;48.806;9.140;2024-02-23T13:13:35;10.90;1.00
4637;DHT22;2331;48.806;9.140;2024-02-23T13:16:03;11.00;1.00
4637;DHT22;2331;48.806;9.140;2024-02-23T13:18:30;10.90;1.00
4637;DHT22;2331;48.806;9.140;2024-02-23T13:20:57;10.90;1.00
4637;DHT22;2331;48.806;9.140;2024-02-23T13:23:24;10.90;1.00
4637;DHT22;2331;48.806;9.140;2024-02-23T13:25:51;11.00;1.00
4637;DHT22;2331;48.806;9.140;2024-02-23T13:28:17;11.10;1.00
4637;DHT22;2331;48.806;9.140;2024-02-23T13:30:44;11.10;1.00
4637;DHT22;2331;48.806;9.140;2024-02-23T13:33:12;11.10;1.00
4637;DHT22;2331;48.806;9.140;2024-02-23T13:35:40;11.20;1.00
4637;DHT22;2331;48.806;9.140;2024-02-23T13:38:06;11.00;1.00
4637;DHT22;2331;48.806;9.140;2024-02-23T13:40:34;11.00;1.00
4637;DHT22;2331;48.806;9.140;2024-02-23T13:43:01;11.00;1.00
4637;DHT22;2331;48.806;9.140;2024-02-23T13:45:28;11.10;1.00
4637;DHT22;2331;48.806;9.140;2024-02-23T13:47:59;11.00;1.00
4637;DHT22;2331;48.806;9.140;2024-02-23T13:50:27;11.00;1.00
4637;DHT22;2331;48.806;9.140;2024-02-23T13:52:54;11.10;1.00
4637;DHT22;2331;48.806;9.140;2024-02-23T13:55:21;11.10;1.00
4637;DHT22;2331;48.806;9.140;2024-02-23T13:57:48;11.10;1.00
4637;DHT22;2331;48.806;9.140;2024-02-23T14:00:16;11.20;1.00
4637;DHT22;2331;48.806;9.140;2024-02-23T14:02:44;11.30;1.00
4637;DHT22;2331;48.806;9.140;2024-02-23T14:05:11;11.30;1.00
4637;DHT22;2331;48.806;9.140;2024-02-23T14:07:40;11.30;1.00
4637;DHT22;2331;48.806;9.140;2024-02-23T14:10:07;11.30;1.00
4637;DHT22;2331;48.806;9.140;2024-02-23T14:12:34;11.30;1.00
4637;DHT22;2331;48.806;9.140;2024-02-23T14:15:01;11.20;1.00
4637;DHT22;2331;48.806;9.140;2024-02-23T14:17:28;11.30;1.00
4637;DHT22;2331;48.806;9.140;2024-02-23T14:19:54;11.30;1.00
4637;DHT22;2331;48.806;9.140;2024-02-23T14:22:21;11.40;1.00
4637;DHT22;2331;48.806;9.140;2024-02-23T14:24:50;11.30;1.00
4637;DHT22;2331;48.806;9.140;2024-02-23T14:27:16;11.40;1.00
4637;DHT22;2331;48.806;9.140;2024-02-23T14:29:43;11.40;1.00
4637;DHT22;2331;48.806;9.140;2024-02-23T14:32:15;11.40;1.00
4637;DHT22;2331;48.806;9.140;2024-02-23T14:34:42;11.50;1.00
4637;DHT22;2331;48.806;9.140;2024-02-23T14:37:09;11.40;1.00
4637;DHT22;2331;48.806;9.140;2024-02-23T14:39:36;11.30;1.00
4637;DHT22;2331;48.806;9.140;2024-02-23T14:42:04;11.40;1.00
4637;DHT22;2331;48.806;9.140;2024-02-23T14:44:31;11.30;1.00
4637;DHT22;2331;48.806;9.140;2024-02-23T14:46:58;11.30;1.00
4637;DHT22;2331;48.806;9.140;2024-02-23T14:49:25;11.50;1.00
4637;DHT22;2331;48.806;9.140;2024-02-23T14:51:51;11.40;1.00
4637;DHT22;2331;48.806;9.140;2024-02-23T14:54:18;11.60;1.00
4637;DHT22;2331;48.806;9.140;2024-02-23T14:56:45;11.50;1.00
4637;DHT22;2331;48.806;9.140;2024-02-23T14:59:13;11.40;1.00
4637;DHT22;2331;48.806;9.140;2024-02-23T15:01:40;11.40;1.00
4637;DHT22;2331;48.806;9.140;2024-02-23T15:04:07;11.50;1.00
4637;DHT22;2331;48.806;9.140;2024-02-23T15:06:34;11.60;1.00
4637;DHT22;2331;48.806;9.140;2024-02-23T15:09:01;11.50;1.00
4637;DHT22;2331;48.806;9.140;2024-02-23T15:11:29;11.50;1.00
4637;DHT22;2331;48.806;9.140;2024-02-23T15:13:55;11.50;1.00
4637;DHT22;2331;48.806;9.140;2024-02-23T15:16:24;11.50;1.00
4637;DHT22;2331;48.806;9.140;2024-02-23T15:18:51;11.50;1.00
4637;DHT22;2331;48.806;9.140;2024-02-23T15:21:18;11.50;1.00
4637;DHT22;2331;48.806;9.140;2024-02-23T15:23:48;11.60;1.00
4637;DHT22;2331;48.806;9.140;2024-02-23T15:26:15;11.50;1.00
4637;DHT22;2331;48.806;9.140;2024-02-23T15:28:41;11.60;1.00
4637;DHT22;2331;48.806;9.140;2024-02-23T15:31:11;11.60;1.00
4637;DHT22;2331;48.806;9.140;2024-02-23T15:33:39;11.50;1.00
4637;DHT22;2331;48.806;9.140;2024-02-23T15:36:06;11.60;1.00
4637;DHT22;2331;48.806;9.140;2024-02-23T15:38:34;11.60;1.00
4637;DHT22;2331;48.806;9.140;2024-02-23T15:41:01;11.30;1.00
4637;DHT22;2331;48.806;9.140;2024-02-23T15:43:27;11.40;1.00
4637;DHT22;2331;48.806;9.140;2024-02-23T15:45:54;11.40;1.00
4637;DHT22;2331;48.806;9.140;2024-02-23T15:48:22;11.40;1.00
4637;DHT22;2331;48.806;9.140;2024-02-23T15:50:50;11.40;1.00
4637;DHT22;2331;48.806;9.140;2024-02-23T15:53:17;11.50;1.00
4637;DHT22;2331;48.806;9.140;2024-02-23T15:55:44;11.40;1.00
4637;DHT22;2331;48.806;9.140;2024-02-23T15:58:11;11.50;1.00
4637;DHT22;2331;48.806;9.140;2024-02-23T16:00:40;11.50;1.00
4637;DHT22;2331;48.806;9.140;2024-02-23T16:03:07;11.60;1.00
4637;DHT22;2331;48.806;9.140;2024-02-23T16:05:34;11.70;1.00
4637;DHT22;2331;48.806;9.140;2024-02-23T16:08:02;11.60;1.00
4637;DHT22;2331;48.806;9.140;2024-02-23T16:10:30;11.60;1.00
4637;DHT22;2331;48.806;9.140;2024-02-23T16:12:57;11.40;1.00
4637;DHT22;2331;48.806;9.140;2024-02-23T16:15:25;11.30;1.00
4637;DHT22;2331;48.806;9.140;2024-02-23T16:17:52;11.30;1.00
4637;DHT22;2331;48.806;9.140;2024-02-23T16:20:19;11.40;1.00
4637;DHT22;2331;48.806;9.140;2024-02-23T16:22:45;11.40;1.00
4637;DHT22;2331;48.806;9.140;2024-02-23T16:25:14;11.40;1.00
4637;DHT22;2331;48.806;9.140;2024-02-23T16:27:41;11.50;1.00
4637;DHT22;2331;48.806;9.140;2024-02-23T16:30:08;11.50;1.00